Edgard, Louisiana
Current Conditions -  °F | °C
As of 3:55 PM on Friday 28 Nov 2014 (Local Time) from K1L0 Reporting Station
Clear Clear  
Wind Chill: 59°   Ceiling: Unl
Heat Index: 59°   Visibility: 10mi
Dew Point: 42°   Wind: 7mph
Humidity: 54%   Direction: 80°E
Pressure: 30.29"   Gusts: NA
Location:  30.04°N, 90.56°W
Report Text: K1L0 282155Z AUTO 08006KT 10SM CLR 15/06 A3029 RMK AO2 T01500058
Loading
Personal Weather Stations






























Interactive Weather Map New forecast layout! Learn more

10-Day Weather Forecast

Advertisements
Track Severe Weather on mobile